Time;durP1;ratioP1;P1;durP2;ratioP2;P2;SDS_P1;SDS_P2;PMS_P1;PMS_P2;Temp;Humidity;BMP_temperature;BMP_pressure;BME280_temperature;BME280_humidity;BME280_pressure;Samples;Min_cycle;Max_cycle;Signal;HPM_P1;HPM_P2
2022/04/17 00:00:09;;;;;;;9.40;6.55;;;;;;;;;;5071625;28;20039;-27
2022/04/17 00:02:35;;;;;;;6.55;5.85;;;;;;;;;;5072863;28;20044;-32
2022/04/17 00:05:01;;;;;;;7.72;6.15;;;;;;;;;;5071842;28;20530;-31
2022/04/17 00:07:28;;;;;;;8.57;5.72;;;;;;;;;;5072075;28;20044;-30
2022/04/17 00:09:54;;;;;;;6.78;6.00;;;;;;;;;;5071931;28;20090;-30
2022/04/17 00:12:23;;;;;;;6.95;6.22;;;;;;;;;;5071117;28;20036;-32
2022/04/17 00:14:49;;;;;;;7.88;5.90;;;;;;;;;;5071548;28;20041;-29
2022/04/17 00:17:15;;;;;;;6.50;5.88;;;;;;;;;;5071514;28;20048;-29
2022/04/17 00:19:41;;;;;;;8.43;6.63;;;;;;;;;;5071900;28;20567;-29
2022/04/17 00:22:08;;;;;;;7.40;5.70;;;;;;;;;;5071109;28;20094;-30
2022/04/17 00:24:35;;;;;;;8.88;6.25;;;;;;;;;;5069141;28;20032;-30
2022/04/17 00:27:01;;;;;;;7.70;6.90;;;;;;;;;;5071873;28;20040;-31
2022/04/17 00:29:27;;;;;;;9.25;6.88;;;;;;;;;;5072449;28;20139;-30
2022/04/17 00:31:54;;;;;;;7.85;7.15;;;;;;;;;;5071287;28;20076;-30
2022/04/17 00:34:20;;;;;;;8.15;7.13;;;;;;;;;;5071376;28;20074;-29
2022/04/17 00:36:46;;;;;;;7.50;6.75;;;;;;;;;;5071154;28;20043;-29
2022/04/17 00:39:12;;;;;;;9.00;7.38;;;;;;;;;;5071779;28;20090;-29
2022/04/17 00:41:38;;;;;;;9.05;6.75;;;;;;;;;;5071071;28;20032;-31
2022/04/17 00:44:10;;;;;;;8.93;6.75;;;;;;;;;;5071344;28;20668;-29
2022/04/17 00:46:36;;;;;;;9.10;7.07;;;;;;;;;;5071103;28;20044;-31
2022/04/17 00:49:03;;;;;;;9.32;7.32;;;;;;;;;;5071262;28;20105;-32
2022/04/17 00:51:29;;;;;;;9.15;7.95;;;;;;;;;;5071255;28;20088;-30
2022/04/17 00:53:57;;;;;;;9.00;7.63;;;;;;;;;;5070844;28;20133;-28
2022/04/17 00:56:23;;;;;;;8.20;7.25;;;;;;;;;;5053349;28;20051;-30
2022/04/17 00:58:50;;;;;;;8.30;7.50;;;;;;;;;;5053383;28;20051;-29
2022/04/17 01:01:16;;;;;;;8.52;7.20;;;;;;;;;;5070508;28;20080;-32
2022/04/17 01:03:42;;;;;;;9.05;7.78;;;;;;;;;;5071213;28;20548;-30
2022/04/17 01:06:09;;;;;;;8.10;7.28;;;;;;;;;;5071200;28;20490;-31
2022/04/17 01:08:41;;;;;;;8.23;7.43;;;;;;;;;;5070882;28;20075;-29
2022/04/17 01:11:07;;;;;;;10.55;7.97;;;;;;;;;;5070745;28;20044;-31
2022/04/17 01:13:34;;;;;;;9.82;7.80;;;;;;;;;;5074114;28;20392;-29
2022/04/17 01:16:05;;;;;;;9.15;7.43;;;;;;;;;;5074913;28;20041;-29
2022/04/17 01:18:51;;;;;;;9.70;7.93;;;;;;;;;;5074638;28;20427;-31
2022/04/17 01:21:20;;;;;;;10.63;8.40;;;;;;;;;;5074424;28;20067;-29
2022/04/17 01:29:16;;;;;;;8.70;7.63;;;;;;;;;;5054452;28;20052;-31
2022/04/17 01:31:42;;;;;;;9.38;7.40;;;;;;;;;;5056136;28;20049;-30
2022/04/17 01:34:09;;;;;;;8.60;7.43;;;;;;;;;;5074042;28;20094;-30
2022/04/17 01:36:35;;;;;;;9.30;8.18;;;;;;;;;;5074480;28;20275;-26
2022/04/17 01:39:01;;;;;;;9.43;7.50;;;;;;;;;;5061467;28;20037;-32
2022/04/17 01:41:27;;;;;;;8.93;8.05;;;;;;;;;;5058857;28;20051;-31
2022/04/17 01:43:53;;;;;;;11.05;8.10;;;;;;;;;;5069456;28;20079;-30
2022/04/17 01:46:19;;;;;;;9.90;8.27;;;;;;;;;;5073912;28;20032;-30
2022/04/17 01:48:45;;;;;;;10.02;8.63;;;;;;;;;;5073761;28;20097;-31
2022/04/17 01:51:11;;;;;;;9.50;8.50;;;;;;;;;;5073975;28;20040;-28
2022/04/17 01:53:37;;;;;;;10.98;8.35;;;;;;;;;;5073372;28;20546;-29
2022/04/17 01:56:03;;;;;;;9.90;8.25;;;;;;;;;;5073781;28;20051;-28
2022/04/17 01:58:29;;;;;;;12.90;8.93;;;;;;;;;;5072813;28;20134;-29
2022/04/17 02:00:55;;;;;;;9.82;8.07;;;;;;;;;;5073748;28;20040;-29
2022/04/17 02:03:21;;;;;;;9.00;8.10;;;;;;;;;;5072894;28;20300;-30
2022/04/17 02:05:47;;;;;;;12.00;9.20;;;;;;;;;;5074165;28;20094;-31
2022/04/17 02:08:15;;;;;;;11.60;8.88;;;;;;;;;;5072757;28;20040;-30
2022/04/17 02:10:41;;;;;;;10.05;8.70;;;;;;;;;;5073868;28;20047;-29
2022/04/17 02:13:07;;;;;;;9.57;8.57;;;;;;;;;;5072662;28;20043;-28
2022/04/17 02:15:33;;;;;;;10.52;8.63;;;;;;;;;;5055909;28;20048;-28
2022/04/17 02:17:59;;;;;;;9.10;8.20;;;;;;;;;;5072657;28;20178;-28
2022/04/17 02:20:26;;;;;;;11.68;8.50;;;;;;;;;;5073854;28;20387;-30
2022/04/17 02:22:52;;;;;;;9.90;8.48;;;;;;;;;;5072184;28;20098;-29
2022/04/17 02:25:18;;;;;;;10.70;9.15;;;;;;;;;;5073361;28;20405;-32
2022/04/17 02:27:45;;;;;;;10.50;9.40;;;;;;;;;;5072596;28;20478;-29
2022/04/17 02:30:11;;;;;;;10.95;9.40;;;;;;;;;;5073250;28;20429;-29
2022/04/17 02:32:37;;;;;;;11.98;8.95;;;;;;;;;;5072067;28;20037;-29
2022/04/17 02:35:03;;;;;;;11.45;9.38;;;;;;;;;;5073065;28;20041;-30
2022/04/17 02:37:29;;;;;;;12.52;9.40;;;;;;;;;;5072666;28;20105;-30
2022/04/17 02:39:58;;;;;;;11.98;9.30;;;;;;;;;;5072762;28;20139;-32
2022/04/17 02:42:24;;;;;;;11.73;9.25;;;;;;;;;;5072480;28;20051;-28
2022/04/17 02:44:50;;;;;;;10.13;9.02;;;;;;;;;;5072666;28;20048;-30
2022/04/17 02:50:01;;;;;;;11.52;9.73;;;;;;;;;;5072577;28;20041;-30
2022/04/17 02:52:27;;;;;;;10.23;9.23;;;;;;;;;;5072323;28;20482;-30
2022/04/17 02:54:54;;;;;;;10.07;8.90;;;;;;;;;;5072596;28;20512;-29
2022/04/17 02:57:20;;;;;;;10.18;9.02;;;;;;;;;;5072610;28;20067;-29
2022/04/17 02:59:46;;;;;;;11.55;8.70;;;;;;;;;;5072319;28;20036;-29
2022/04/17 03:07:42;;;;;;;11.27;9.00;;;;;;;;;;5072696;28;20040;-30
2022/04/17 03:10:08;;;;;;;10.30;9.20;;;;;;;;;;5071803;28;20045;-28
2022/04/17 03:12:37;;;;;;;12.73;9.65;;;;;;;;;;5053800;28;20067;-28
2022/04/17 03:15:05;;;;;;;11.15;10.02;;;;;;;;;;5053742;28;20045;-28
2022/04/17 03:17:31;;;;;;;12.43;9.68;;;;;;;;;;5071221;28;20462;-31
2022/04/17 03:19:57;;;;;;;13.98;9.57;;;;;;;;;;5071651;28;20497;-30
2022/04/17 03:22:24;;;;;;;10.50;9.40;;;;;;;;;;5071736;28;20040;-30
2022/04/17 03:24:50;;;;;;;10.45;9.45;;;;;;;;;;5071437;28;20047;-28
2022/04/17 03:27:16;;;;;;;13.82;9.75;;;;;;;;;;5072131;28;20063;-28
2022/04/17 03:29:42;;;;;;;10.63;9.50;;;;;;;;;;5072136;28;20075;-30
2022/04/17 03:32:08;;;;;;;11.30;9.27;;;;;;;;;;5072172;28;20128;-29
2022/04/17 03:34:34;;;;;;;12.00;10.25;;;;;;;;;;5071237;28;20041;-28
2022/04/17 03:37:01;;;;;;;10.85;9.75;;;;;;;;;;5071987;28;20040;-29
2022/04/17 03:39:27;;;;;;;13.23;10.02;;;;;;;;;;5071846;28;20036;-29
2022/04/17 03:41:53;;;;;;;11.70;9.80;;;;;;;;;;5071816;28;20036;-28
2022/04/17 03:44:20;;;;;;;12.90;9.57;;;;;;;;;;5071806;28;20035;-29
2022/04/17 03:46:47;;;;;;;11.90;9.80;;;;;;;;;;5071776;28;20656;-31
2022/04/17 03:49:14;;;;;;;11.35;9.38;;;;;;;;;;5071726;28;20078;-31
2022/04/17 03:51:40;;;;;;;12.38;10.38;;;;;;;;;;5071022;28;20048;-29
2022/04/17 03:54:06;;;;;;;12.25;9.98;;;;;;;;;;5071591;28;20043;-29
2022/04/17 03:56:33;;;;;;;12.32;9.75;;;;;;;;;;5071090;28;20040;-30
2022/04/17 03:59:01;;;;;;;12.68;9.95;;;;;;;;;;5071887;28;20123;-29
2022/04/17 04:01:27;;;;;;;12.02;9.48;;;;;;;;;;5052835;28;20402;-29
2022/04/17 04:03:56;;;;;;;11.48;10.27;;;;;;;;;;5071448;28;20068;-30
2022/04/17 04:06:22;;;;;;;13.02;10.10;;;;;;;;;;5071516;28;20032;-32
2022/04/17 04:08:49;;;;;;;12.43;10.48;;;;;;;;;;5071532;28;20051;-29
2022/04/17 04:11:15;;;;;;;12.82;10.55;;;;;;;;;;5071576;28;20616;-29
2022/04/17 04:13:42;;;;;;;12.48;10.10;;;;;;;;;;5071104;28;20075;-29
2022/04/17 04:16:08;;;;;;;11.30;9.88;;;;;;;;;;5071047;28;20105;-29
2022/04/17 04:18:34;;;;;;;11.05;9.82;;;;;;;;;;5070595;28;20076;-29
2022/04/17 04:21:01;;;;;;;11.70;9.90;;;;;;;;;;5070681;28;20089;-32
2022/04/17 04:23:27;;;;;;;13.68;10.63;;;;;;;;;;5071107;28;20081;-29
2022/04/17 04:25:53;;;;;;;12.05;9.73;;;;;;;;;;5070365;28;20040;-29
2022/04/17 04:28:38;;;;;;;12.32;10.48;;;;;;;;;;5071953;28;20044;-28
2022/04/17 04:31:05;;;;;;;14.05;11.20;;;;;;;;;;5070719;28;20036;-29
2022/04/17 04:33:31;;;;;;;14.10;11.13;;;;;;;;;;5071358;28;20048;-29
2022/04/17 04:36:01;;;;;;;11.15;10.02;;;;;;;;;;5071108;28;20199;-29
2022/04/17 04:38:28;;;;;;;13.23;9.75;;;;;;;;;;5070711;28;20079;-31
2022/04/17 04:40:54;;;;;;;12.57;10.10;;;;;;;;;;5071147;28;20033;-33
2022/04/17 04:43:21;;;;;;;12.02;9.93;;;;;;;;;;5071259;28;20508;-29
2022/04/17 04:51:16;;;;;;;11.57;10.38;;;;;;;;;;5074797;28;20072;-30
2022/04/17 04:53:43;;;;;;;12.93;10.07;;;;;;;;;;5075231;28;20062;-32
2022/04/17 04:56:09;;;;;;;13.13;10.18;;;;;;;;;;5074466;28;20486;-30
2022/04/17 04:58:36;;;;;;;12.63;9.90;;;;;;;;;;5074660;28;20087;-28
2022/04/17 05:01:02;;;;;;;14.30;10.45;;;;;;;;;;5074528;28;20075;-30
2022/04/17 05:03:28;;;;;;;12.63;10.77;;;;;;;;;;5047488;28;20033;-28
2022/04/17 05:05:54;;;;;;;11.73;10.15;;;;;;;;;;5067212;28;20029;-29
2022/04/17 05:08:21;;;;;;;13.40;10.65;;;;;;;;;;5064650;28;20037;-30
2022/04/17 05:10:47;;;;;;;12.95;10.25;;;;;;;;;;5062492;28;20161;-30
2022/04/17 05:13:13;;;;;;;13.90;10.63;;;;;;;;;;5053962;28;20037;-29
2022/04/17 05:15:40;;;;;;;13.13;10.30;;;;;;;;;;5067616;28;20040;-31
2022/04/17 05:18:06;;;;;;;12.15;10.48;;;;;;;;;;5074390;28;20489;-28
2022/04/17 05:20:33;;;;;;;11.95;9.70;;;;;;;;;;5073383;28;20029;-29
2022/04/17 05:23:15;;;;;;;12.13;10.13;;;;;;;;;;5071765;28;20476;-28
2022/04/17 05:25:41;;;;;;;12.20;10.60;;;;;;;;;;5061479;28;20131;-30
2022/04/17 05:28:07;;;;;;;13.35;10.18;;;;;;;;;;5060526;28;20106;-31
2022/04/17 05:30:33;;;;;;;11.32;9.90;;;;;;;;;;5061432;28;20517;-31
2022/04/17 05:32:59;;;;;;;13.40;9.90;;;;;;;;;;5060585;28;20606;-30
2022/04/17 05:35:25;;;;;;;12.55;10.02;;;;;;;;;;5057031;28;20394;-30
2022/04/17 05:37:51;;;;;;;11.88;9.90;;;;;;;;;;5065345;28;20041;-29
2022/04/17 05:40:18;;;;;;;11.48;10.27;;;;;;;;;;5037156;28;20062;-28
2022/04/17 05:42:44;;;;;;;14.35;10.88;;;;;;;;;;5058940;28;20032;-29
2022/04/17 05:45:10;;;;;;;12.52;10.52;;;;;;;;;;5071117;28;20032;-29
2022/04/17 05:47:36;;;;;;;11.73;10.50;;;;;;;;;;5073611;28;20043;-28
2022/04/17 05:50:03;;;;;;;11.18;10.00;;;;;;;;;;5055014;28;20120;-32
2022/04/17 05:52:29;;;;;;;13.50;10.88;;;;;;;;;;5067176;28;20056;-32
2022/04/17 05:54:57;;;;;;;11.52;10.13;;;;;;;;;;5073741;28;20136;-29
2022/04/17 05:57:23;;;;;;;12.02;10.45;;;;;;;;;;5073091;28;20045;-32
2022/04/17 05:59:49;;;;;;;13.02;10.07;;;;;;;;;;5073497;28;20069;-32
2022/04/17 06:02:15;;;;;;;12.60;10.50;;;;;;;;;;5061500;28;20048;-30
2022/04/17 06:04:42;;;;;;;12.88;11.05;;;;;;;;;;5070074;28;20379;-29
2022/04/17 06:07:11;;;;;;;13.18;10.50;;;;;;;;;;5061544;28;20044;-29
2022/04/17 06:09:37;;;;;;;12.57;10.77;;;;;;;;;;5070830;28;20037;-26
2022/04/17 06:12:03;;;;;;;14.80;11.25;;;;;;;;;;5074669;28;20094;-27
2022/04/17 06:14:29;;;;;;;12.38;10.98;;;;;;;;;;5056076;28;20087;-29
2022/04/17 06:16:56;;;;;;;12.93;10.75;;;;;;;;;;5073344;28;20041;-29
2022/04/17 06:19:22;;;;;;;13.10;11.10;;;;;;;;;;5035822;28;20170;-29
2022/04/17 06:21:48;;;;;;;13.02;10.98;;;;;;;;;;5055426;28;20116;-27
2022/04/17 06:24:14;;;;;;;13.90;11.80;;;;;;;;;;5053944;28;20094;-28
2022/04/17 06:26:40;;;;;;;14.45;10.98;;;;;;;;;;5054468;28;20120;-27
2022/04/17 06:29:08;;;;;;;14.18;10.40;;;;;;;;;;5036391;28;20076;-29
2022/04/17 06:31:43;;;;;;;13.73;10.50;;;;;;;;;;5053918;28;20080;-28
2022/04/17 06:34:09;;;;;;;11.98;10.45;;;;;;;;;;5054030;28;20448;-27
2022/04/17 06:36:35;;;;;;;13.48;10.85;;;;;;;;;;5053961;28;20079;-28
2022/04/17 06:39:01;;;;;;;14.35;10.82;;;;;;;;;;5051964;28;20176;-27
2022/04/17 06:41:27;;;;;;;14.05;11.02;;;;;;;;;;5053950;28;20475;-27
2022/04/17 06:43:53;;;;;;;12.50;10.48;;;;;;;;;;5053428;28;20143;-29
2022/04/17 06:46:19;;;;;;;13.68;12.10;;;;;;;;;;5054296;28;20041;-28
2022/04/17 06:48:45;;;;;;;15.20;11.10;;;;;;;;;;5054227;28;20048;-28
2022/04/17 06:51:12;;;;;;;12.80;11.35;;;;;;;;;;5053636;28;20230;-29
2022/04/17 06:53:38;;;;;;;14.05;10.75;;;;;;;;;;5053209;28;20041;-28
2022/04/17 06:56:04;;;;;;;12.88;11.23;;;;;;;;;;5053506;28;20265;-30
2022/04/17 06:58:30;;;;;;;13.70;10.75;;;;;;;;;;5065895;28;20045;-31
2022/04/17 07:00:56;;;;;;;13.60;10.43;;;;;;;;;;5072825;28;20052;-27
2022/04/17 07:03:22;;;;;;;13.32;10.45;;;;;;;;;;5072177;28;20039;-26
2022/04/17 07:05:48;;;;;;;12.73;11.10;;;;;;;;;;5072083;28;20040;-27
2022/04/17 07:08:14;;;;;;;12.88;10.68;;;;;;;;;;5071784;28;20041;-27
2022/04/17 07:10:41;;;;;;;12.05;10.30;;;;;;;;;;5071667;28;20416;-27
2022/04/17 07:13:08;;;;;;;13.27;10.43;;;;;;;;;;5071668;28;20040;-27
2022/04/17 07:15:35;;;;;;;12.95;10.48;;;;;;;;;;5072720;28;20033;-29
2022/04/17 07:18:01;;;;;;;14.25;9.70;;;;;;;;;;5071891;28;20043;-27
2022/04/17 07:20:27;;;;;;;12.70;10.50;;;;;;;;;;5072698;28;20040;-27
2022/04/17 07:22:53;;;;;;;11.65;9.48;;;;;;;;;;5071102;28;20039;-27
2022/04/17 07:25:20;;;;;;;12.82;9.98;;;;;;;;;;5066808;28;20064;-28
2022/04/17 07:27:49;;;;;;;10.82;9.60;;;;;;;;;;5072424;28;21353;-27
2022/04/17 07:30:18;;;;;;;10.50;9.20;;;;;;;;;;5071998;28;20084;-28
2022/04/17 07:32:47;;;;;;;11.93;9.30;;;;;;;;;;5071687;28;20055;-27
2022/04/17 07:35:17;;;;;;;12.30;9.85;;;;;;;;;;5054997;28;20048;-27
2022/04/17 07:37:54;;;;;;;9.35;8.40;;;;;;;;;;5071992;28;20044;-27
2022/04/17 07:40:21;;;;;;;11.40;8.90;;;;;;;;;;5072538;28;20032;-27
2022/04/17 07:42:48;;;;;;;9.20;8.15;;;;;;;;;;5073129;28;20063;-26
2022/04/17 07:45:15;;;;;;;10.00;8.60;;;;;;;;;;5072995;28;20459;-26
2022/04/17 07:47:42;;;;;;;9.25;8.35;;;;;;;;;;5073187;28;20047;-27
2022/04/17 07:50:08;;;;;;;9.30;8.35;;;;;;;;;;5052906;28;20067;-28
2022/04/17 07:52:35;;;;;;;9.25;8.13;;;;;;;;;;5070329;28;20115;-30
2022/04/17 07:55:01;;;;;;;10.07;8.52;;;;;;;;;;5071528;28;20459;-29
2022/04/17 07:57:27;;;;;;;10.15;8.25;;;;;;;;;;5070690;28;20045;-29
2022/04/17 07:59:55;;;;;;;10.05;8.63;;;;;;;;;;5071701;28;20132;-30
2022/04/17 08:02:28;;;;;;;10.60;8.55;;;;;;;;;;5071041;28;20036;-29
2022/04/17 08:04:55;;;;;;;10.10;8.27;;;;;;;;;;5071365;28;20519;-29
2022/04/17 08:07:22;;;;;;;9.77;8.35;;;;;;;;;;5071033;28;20037;-30
2022/04/17 08:09:48;;;;;;;8.25;7.35;;;;;;;;;;5071163;28;20163;-29
2022/04/17 08:12:14;;;;;;;10.05;8.55;;;;;;;;;;5070389;28;20036;-33
2022/04/17 08:14:40;;;;;;;9.07;7.97;;;;;;;;;;5070543;28;20040;-29
2022/04/17 08:17:06;;;;;;;8.23;7.40;;;;;;;;;;5062899;28;20517;-26
2022/04/17 08:19:32;;;;;;;9.18;7.47;;;;;;;;;;5067006;28;20032;-27
2022/04/17 08:21:59;;;;;;;8.40;7.00;;;;;;;;;;5049609;28;20040;-27
2022/04/17 08:24:25;;;;;;;8.32;7.28;;;;;;;;;;5066336;28;20047;-27
2022/04/17 08:26:51;;;;;;;8.60;7.20;;;;;;;;;;5069021;28;20033;-28
2022/04/17 08:29:19;;;;;;;8.73;6.82;;;;;;;;;;5065054;28;20093;-27
2022/04/17 08:31:45;;;;;;;10.05;7.85;;;;;;;;;;5046905;28;20517;-27
2022/04/17 08:34:11;;;;;;;10.30;7.07;;;;;;;;;;5065989;28;20086;-29
2022/04/17 08:36:37;;;;;;;9.07;7.28;;;;;;;;;;5057101;28;20523;-32
2022/04/17 08:39:03;;;;;;;8.25;7.45;;;;;;;;;;5066577;28;20041;-27
2022/04/17 08:41:32;;;;;;;8.45;6.78;;;;;;;;;;5071212;28;20075;-27
2022/04/17 08:43:58;;;;;;;8.10;7.03;;;;;;;;;;5066342;28;20041;-28
2022/04/17 08:46:25;;;;;;;9.10;8.07;;;;;;;;;;5068290;28;20489;-28
2022/04/17 08:48:51;;;;;;;8.07;6.88;;;;;;;;;;5060885;28;20067;-27
2022/04/17 08:51:18;;;;;;;7.25;6.55;;;;;;;;;;5068073;28;20041;-29
2022/04/17 08:53:44;;;;;;;7.80;6.60;;;;;;;;;;5070172;28;20093;-28
2022/04/17 08:56:10;;;;;;;9.35;7.03;;;;;;;;;;5071049;28;20044;-26
2022/04/17 08:58:36;;;;;;;7.53;6.82;;;;;;;;;;5065652;28;20086;-27
2022/04/17 09:01:03;;;;;;;7.43;6.60;;;;;;;;;;5064441;28;20043;-28
2022/04/17 09:03:29;;;;;;;9.45;7.28;;;;;;;;;;5053323;28;20037;-30
2022/04/17 09:05:56;;;;;;;7.50;6.80;;;;;;;;;;5050923;28;20064;-29
2022/04/17 09:08:22;;;;;;;7.50;6.80;;;;;;;;;;5058377;28;20058;-29
2022/04/17 09:10:55;;;;;;;7.40;6.60;;;;;;;;;;5070271;28;20041;-28
2022/04/17 09:13:34;;;;;;;7.90;7.10;;;;;;;;;;5070732;28;20055;-29
2022/04/17 09:16:03;;;;;;;7.15;6.40;;;;;;;;;;5070611;28;20273;-29
2022/04/17 09:18:31;;;;;;;7.65;6.90;;;;;;;;;;5070430;28;20126;-28
2022/04/17 09:20:57;;;;;;;7.07;6.38;;;;;;;;;;5070076;28;20041;-29
2022/04/17 09:23:36;;;;;;;6.65;6.05;;;;;;;;;;5070143;28;20033;-29
2022/04/17 09:26:04;;;;;;;6.97;6.32;;;;;;;;;;5070346;28;20048;-29
2022/04/17 09:28:34;;;;;;;7.65;6.53;;;;;;;;;;5070369;28;20456;-29
2022/04/17 09:31:01;;;;;;;6.40;5.25;;;;;;;;;;5070801;28;20385;-28
2022/04/17 09:33:37;;;;;;;6.70;5.60;;;;;;;;;;5071599;28;20040;-28
2022/04/17 09:36:03;;;;;;;6.25;5.65;;;;;;;;;;5073988;28;20075;-28
2022/04/17 09:38:35;;;;;;;5.85;5.22;;;;;;;;;;5073495;28;20094;-30
2022/04/17 09:41:05;;;;;;;7.28;5.93;;;;;;;;;;5073817;28;20048;-30
2022/04/17 09:43:34;;;;;;;6.60;6.00;;;;;;;;;;5074109;28;20040;-30
2022/04/17 09:46:01;;;;;;;6.95;6.25;;;;;;;;;;5074083;28;20049;-29
2022/04/17 09:48:35;;;;;;;6.50;5.90;;;;;;;;;;5073807;28;20032;-29
2022/04/17 09:51:01;;;;;;;7.03;5.93;;;;;;;;;;5073629;28;20044;-29
2022/04/17 09:53:37;;;;;;;6.30;5.65;;;;;;;;;;5073540;28;20047;-29
2022/04/17 09:56:07;;;;;;;6.10;5.60;;;;;;;;;;5073978;28;20068;-31
2022/04/17 09:58:37;;;;;;;6.32;5.78;;;;;;;;;;5072623;28;20068;-29
2022/04/17 10:01:03;;;;;;;6.75;5.82;;;;;;;;;;5072519;28;20087;-29
2022/04/17 10:03:30;;;;;;;6.15;5.65;;;;;;;;;;5071838;28;20143;-30
2022/04/17 10:05:56;;;;;;;6.10;5.50;;;;;;;;;;5072176;28;20054;-28
2022/04/17 10:08:26;;;;;;;6.97;6.28;;;;;;;;;;5072008;28;20086;-28
2022/04/17 10:10:52;;;;;;;6.43;5.82;;;;;;;;;;5071675;28;20032;-32
2022/04/17 10:13:20;;;;;;;6.45;5.85;;;;;;;;;;5072311;28;20037;-28
2022/04/17 10:15:48;;;;;;;6.28;5.70;;;;;;;;;;5072781;28;20051;-29
2022/04/17 10:18:14;;;;;;;6.18;5.57;;;;;;;;;;5067894;28;20037;-29
2022/04/17 10:20:40;;;;;;;5.85;5.10;;;;;;;;;;5070182;28;20043;-30
2022/04/17 10:23:09;;;;;;;6.30;5.55;;;;;;;;;;5067861;28;20044;-28
2022/04/17 10:25:35;;;;;;;6.15;5.55;;;;;;;;;;5072913;28;20040;-28
2022/04/17 10:28:02;;;;;;;6.18;5.57;;;;;;;;;;5055709;28;20379;-29
2022/04/17 10:30:37;;;;;;;6.13;5.57;;;;;;;;;;5069600;28;20048;-31
2022/04/17 10:33:03;;;;;;;6.47;5.65;;;;;;;;;;5058642;28;20119;-32
2022/04/17 10:35:37;;;;;;;5.82;5.18;;;;;;;;;;5066049;28;20070;-29
2022/04/17 10:38:22;;;;;;;6.07;5.50;;;;;;;;;;5072846;28;20047;-29
2022/04/17 10:40:50;;;;;;;6.63;5.55;;;;;;;;;;5074297;28;20363;-29
2022/04/17 10:43:16;;;;;;;5.43;4.93;;;;;;;;;;5073596;28;20082;-30
2022/04/17 10:46:02;;;;;;;4.97;4.57;;;;;;;;;;5073804;28;20055;-29
2022/04/17 10:48:29;;;;;;;5.25;4.75;;;;;;;;;;5073732;28;20402;-29
2022/04/17 10:50:55;;;;;;;5.05;4.53;;;;;;;;;;5074115;28;20040;-32
2022/04/17 10:53:27;;;;;;;5.50;5.00;;;;;;;;;;5063621;28;20581;-32
2022/04/17 10:56:03;;;;;;;5.32;4.85;;;;;;;;;;5054390;28;20045;-31
2022/04/17 10:58:37;;;;;;;5.75;5.03;;;;;;;;;;5053630;28;20049;-30
2022/04/17 11:01:04;;;;;;;6.38;5.07;;;;;;;;;;5053310;28;20041;-30
2022/04/17 11:03:36;;;;;;;5.18;4.68;;;;;;;;;;5062441;28;20036;-33
2022/04/17 11:06:22;;;;;;;5.20;4.70;;;;;;;;;;5071937;28;20485;-30
2022/04/17 11:08:51;;;;;;;5.75;5.18;;;;;;;;;;5049046;28;20053;-33
2022/04/17 11:11:19;;;;;;;5.90;5.30;;;;;;;;;;5068870;28;20044;-35
2022/04/17 11:14:04;;;;;;;5.57;5.05;;;;;;;;;;5071414;28;20120;-31
2022/04/17 11:16:41;;;;;;;4.70;4.30;;;;;;;;;;5052073;28;20545;-32
2022/04/17 11:19:10;;;;;;;5.00;4.50;;;;;;;;;;5072209;28;20111;-29
2022/04/17 11:21:38;;;;;;;5.30;4.80;;;;;;;;;;5072841;28;20044;-30
2022/04/17 11:24:04;;;;;;;4.85;4.45;;;;;;;;;;5072144;28;20572;-33
2022/04/17 11:26:49;;;;;;;4.97;4.00;;;;;;;;;;5055016;28;20029;-33
2022/04/17 11:29:15;;;;;;;4.80;4.40;;;;;;;;;;5059104;28;20054;-33
2022/04/17 11:31:41;;;;;;;5.72;4.53;;;;;;;;;;5057342;28;20037;-31
2022/04/17 11:34:07;;;;;;;4.88;4.47;;;;;;;;;;5065062;28;20078;-31
2022/04/17 11:36:34;;;;;;;5.10;4.70;;;;;;;;;;5072721;28;20094;-32
2022/04/17 11:39:00;;;;;;;5.10;4.60;;;;;;;;;;5072288;28;20045;-30
2022/04/17 11:41:26;;;;;;;5.93;4.93;;;;;;;;;;5072614;28;20040;-30
2022/04/17 11:43:59;;;;;;;5.18;4.68;;;;;;;;;;5072473;28;20040;-30
2022/04/17 11:46:25;;;;;;;5.68;5.15;;;;;;;;;;5072348;28;20044;-30
2022/04/17 11:48:54;;;;;;;5.18;4.72;;;;;;;;;;5072642;28;20040;-30
2022/04/17 11:51:20;;;;;;;5.30;4.72;;;;;;;;;;5071870;28;20131;-30
2022/04/17 11:53:46;;;;;;;6.18;5.57;;;;;;;;;;5072170;28;20053;-29
2022/04/17 11:56:12;;;;;;;5.78;5.05;;;;;;;;;;5071760;28;20068;-30
2022/04/17 11:58:38;;;;;;;5.68;5.18;;;;;;;;;;5071977;28;20398;-29
2022/04/17 12:01:06;;;;;;;6.50;5.50;;;;;;;;;;5072250;28;20078;-30
2022/04/17 12:03:35;;;;;;;5.90;5.38;;;;;;;;;;5072298;28;20068;-29
2022/04/17 12:06:03;;;;;;;5.68;5.18;;;;;;;;;;5071241;28;20032;-30
2022/04/17 12:08:33;;;;;;;6.63;5.55;;;;;;;;;;5072649;28;20044;-29
2022/04/17 12:10:59;;;;;;;6.40;5.55;;;;;;;;;;5071893;28;20041;-30
2022/04/17 12:13:25;;;;;;;6.25;5.68;;;;;;;;;;5068897;28;20124;-30
2022/04/17 12:16:07;;;;;;;5.95;5.35;;;;;;;;;;5069574;28;20032;-29
2022/04/17 12:18:33;;;;;;;6.07;5.53;;;;;;;;;;5046249;28;20393;-33
2022/04/17 12:21:00;;;;;;;6.28;5.75;;;;;;;;;;5061047;28;20310;-32
2022/04/17 12:23:27;;;;;;;6.25;5.65;;;;;;;;;;5070643;28;20040;-33
2022/04/17 12:25:53;;;;;;;5.50;5.10;;;;;;;;;;5049325;28;20047;-32
2022/04/17 12:28:20;;;;;;;6.18;5.57;;;;;;;;;;5068678;28;20139;-32
2022/04/17 12:30:46;;;;;;;5.22;4.82;;;;;;;;;;5068517;28;20052;-34
2022/04/17 12:33:22;;;;;;;5.80;5.32;;;;;;;;;;5050347;28;20079;-33
2022/04/17 12:36:01;;;;;;;5.70;5.20;;;;;;;;;;5060719;28;20043;-31
2022/04/17 12:38:27;;;;;;;5.72;5.28;;;;;;;;;;5052861;28;20069;-33
2022/04/17 12:40:54;;;;;;;5.93;5.32;;;;;;;;;;5056915;28;20040;-33
2022/04/17 12:43:21;;;;;;;5.57;5.07;;;;;;;;;;5069017;28;20052;-32
2022/04/17 12:46:04;;;;;;;5.60;5.03;;;;;;;;;;5069931;28;20047;-35
2022/04/17 12:48:37;;;;;;;6.20;5.70;;;;;;;;;;5070419;28;20072;-34
2022/04/17 12:51:05;;;;;;;5.18;4.78;;;;;;;;;;5062263;28;20048;-32
2022/04/17 12:53:35;;;;;;;5.60;5.10;;;;;;;;;;5064713;28;20405;-34
2022/04/17 12:56:01;;;;;;;5.45;4.95;;;;;;;;;;5053991;28;20491;-32
2022/04/17 12:58:27;;;;;;;5.93;5.32;;;;;;;;;;5060100;28;20044;-32
2022/04/17 13:00:58;;;;;;;5.35;4.70;;;;;;;;;;5055576;28;20391;-34
2022/04/17 13:03:33;;;;;;;4.57;4.18;;;;;;;;;;5057335;28;20033;-32
2022/04/17 13:05:59;;;;;;;5.00;4.50;;;;;;;;;;5053173;28;20425;-31
2022/04/17 13:08:25;;;;;;;4.95;4.45;;;;;;;;;;5059373;28;20044;-33
2022/04/17 13:10:52;;;;;;;5.30;4.80;;;;;;;;;;5065757;28;20036;-33
2022/04/17 13:13:18;;;;;;;5.18;4.75;;;;;;;;;;5062116;28;20044;-35
2022/04/17 13:15:44;;;;;;;5.18;4.75;;;;;;;;;;5062990;28;20037;-36
2022/04/17 13:18:10;;;;;;;4.53;4.15;;;;;;;;;;5065298;28;20036;-33
2022/04/17 13:20:36;;;;;;;5.68;4.60;;;;;;;;;;5061049;28;20151;-29
2022/04/17 13:23:05;;;;;;;4.93;4.50;;;;;;;;;;5057467;28;20048;-28
2022/04/17 13:25:31;;;;;;;5.07;4.15;;;;;;;;;;5057680;28;20405;-29
2022/04/17 13:27:57;;;;;;;5.63;4.68;;;;;;;;;;5074587;28;20045;-29
2022/04/17 13:30:23;;;;;;;4.93;4.50;;;;;;;;;;5074667;28;20044;-29
2022/04/17 13:32:52;;;;;;;4.82;4.43;;;;;;;;;;5072429;28;20040;-30
2022/04/17 13:35:18;;;;;;;5.95;4.50;;;;;;;;;;5057561;28;20102;-31
2022/04/17 13:40:31;;;;;;;5.90;5.30;;;;;;;;;;5056231;28;20527;-34
2022/04/17 13:42:57;;;;;;;7.13;5.18;;;;;;;;;;5070712;28;20078;-33
2022/04/17 13:45:23;;;;;;;5.32;4.93;;;;;;;;;;5072875;28;20028;-34
2022/04/17 13:47:49;;;;;;;6.13;5.57;;;;;;;;;;5072255;28;20082;-34
2022/04/17 13:50:15;;;;;;;6.18;5.68;;;;;;;;;;5072533;28;20047;-33
2022/04/17 13:52:42;;;;;;;6.05;5.50;;;;;;;;;;5073128;28;20250;-33
2022/04/17 13:55:09;;;;;;;6.32;5.72;;;;;;;;;;5074109;28;20036;-32
2022/04/17 13:57:35;;;;;;;6.28;5.78;;;;;;;;;;5071358;28;20096;-33
2022/04/17 14:00:01;;;;;;;5.70;5.20;;;;;;;;;;5065585;28;20041;-33
2022/04/17 14:02:27;;;;;;;5.97;5.47;;;;;;;;;;5074128;28;20044;-33
2022/04/17 14:04:54;;;;;;;4.80;4.35;;;;;;;;;;5075005;28;20064;-29
2022/04/17 14:07:20;;;;;;;5.28;4.55;;;;;;;;;;5072999;28;20482;-33
2022/04/17 14:09:46;;;;;;;5.05;4.65;;;;;;;;;;5037796;28;20101;-31
2022/04/17 14:12:12;;;;;;;5.75;4.70;;;;;;;;;;5064548;28;20041;-32
2022/04/17 14:14:40;;;;;;;4.88;4.47;;;;;;;;;;5067703;28;20123;-36
2022/04/17 14:17:12;;;;;;;4.65;4.15;;;;;;;;;;5070587;28;20054;-39
2022/04/17 14:19:41;;;;;;;4.47;4.18;;;;;;;;;;5073528;28;20080;-32
2022/04/17 14:22:07;;;;;;;4.78;4.32;;;;;;;;;;5054153;28;20040;-34
2022/04/17 14:24:34;;;;;;;6.07;4.97;;;;;;;;;;5073490;28;20094;-35
2022/04/17 14:27:00;;;;;;;5.15;4.65;;;;;;;;;;5073234;28;20040;-28
2022/04/17 14:29:26;;;;;;;6.28;4.18;;;;;;;;;;5073997;28;20054;-29
2022/04/17 14:31:52;;;;;;;4.55;4.15;;;;;;;;;;5073583;28;20093;-32
2022/04/17 14:34:18;;;;;;;5.43;4.45;;;;;;;;;;5047772;28;20124;-33
2022/04/17 14:36:44;;;;;;;5.15;4.65;;;;;;;;;;5052890;28;20041;-33
2022/04/17 14:39:11;;;;;;;5.22;4.65;;;;;;;;;;5066474;28;20040;-32
2022/04/17 14:41:37;;;;;;;4.75;4.35;;;;;;;;;;5068730;28;20040;-31
2022/04/17 14:44:03;;;;;;;4.38;3.97;;;;;;;;;;5069646;28;20469;-31
2022/04/17 14:46:29;;;;;;;4.68;4.28;;;;;;;;;;5063566;28;20521;-31
2022/04/17 14:48:55;;;;;;;4.65;3.67;;;;;;;;;;5064014;28;20040;-33
2022/04/17 14:51:21;;;;;;;5.18;3.65;;;;;;;;;;5069195;28;20448;-33
2022/04/17 14:53:47;;;;;;;5.32;3.70;;;;;;;;;;5070433;28;20494;-34
2022/04/17 14:56:14;;;;;;;3.20;3.00;;;;;;;;;;5072111;28;20087;-33
2022/04/17 14:58:40;;;;;;;4.53;3.28;;;;;;;;;;5071266;28;20109;-33